sensor_id;sensor_type;location;lat;lon;timestamp;pressure;altitude;pressure_sealevel;temperature;humidity
7990;BME280;4040;42.848;23.034;2023-02-03T00:01:16;95160.53;;;1.88;100.00
7990;BME280;4040;42.848;23.034;2023-02-03T00:03:43;95154.56;;;1.91;100.00
7990;BME280;4040;42.848;23.034;2023-02-03T00:06:10;95158.53;;;1.97;100.00
7990;BME280;4040;42.848;23.034;2023-02-03T00:08:38;95162.78;;;1.86;100.00
7990;BME280;4040;42.848;23.034;2023-02-03T00:11:06;95160.34;;;1.81;100.00
7990;BME280;4040;42.848;23.034;2023-02-03T00:13:35;95167.88;;;1.79;100.00
7990;BME280;4040;42.848;23.034;2023-02-03T00:16:02;95174.72;;;1.80;100.00
7990;BME280;4040;42.848;23.034;2023-02-03T00:18:31;95164.22;;;1.84;100.00
7990;BME280;4040;42.848;23.034;2023-02-03T00:20:58;95171.63;;;1.78;100.00
7990;BME280;4040;42.848;23.034;2023-02-03T00:23:25;95175.19;;;1.70;100.00
7990;BME280;4040;42.848;23.034;2023-02-03T00:25:56;95187.47;;;1.75;100.00
7990;BME280;4040;42.848;23.034;2023-02-03T00:28:24;95185.38;;;1.68;100.00
7990;BME280;4040;42.848;23.034;2023-02-03T00:30:54;95193.34;;;1.68;100.00
7990;BME280;4040;42.848;23.034;2023-02-03T00:33:21;95201.75;;;1.70;100.00
7990;BME280;4040;42.848;23.034;2023-02-03T00:35:48;95208.53;;;1.68;100.00
7990;BME280;4040;42.848;23.034;2023-02-03T00:38:16;95195.00;;;1.73;100.00
7990;BME280;4040;42.848;23.034;2023-02-03T00:40:51;95197.75;;;1.76;100.00
7990;BME280;4040;42.848;23.034;2023-02-03T00:43:18;95199.09;;;1.70;100.00
7990;BME280;4040;42.848;23.034;2023-02-03T00:45:46;95192.66;;;1.71;100.00
7990;BME280;4040;42.848;23.034;2023-02-03T00:48:15;95204.19;;;1.75;100.00
7990;BME280;4040;42.848;23.034;2023-02-03T00:50:45;95206.28;;;1.70;100.00
7990;BME280;4040;42.848;23.034;2023-02-03T00:53:12;95214.19;;;1.54;100.00
7990;BME280;4040;42.848;23.034;2023-02-03T00:55:41;95210.63;;;1.50;100.00
7990;BME280;4040;42.848;23.034;2023-02-03T00:58:09;95210.97;;;1.49;100.00
7990;BME280;4040;42.848;23.034;2023-02-03T01:00:36;95210.19;;;1.48;100.00
7990;BME280;4040;42.848;23.034;2023-02-03T01:03:04;95205.66;;;1.49;100.00
7990;BME280;4040;42.848;23.034;2023-02-03T01:05:32;95194.94;;;1.45;100.00
7990;BME280;4040;42.848;23.034;2023-02-03T01:08:00;95202.03;;;1.41;100.00
7990;BME280;4040;42.848;23.034;2023-02-03T01:10:28;95207.66;;;1.40;100.00
7990;BME280;4040;42.848;23.034;2023-02-03T01:12:55;95219.94;;;1.44;100.00
7990;BME280;4040;42.848;23.034;2023-02-03T01:15:22;95223.47;;;1.36;100.00
7990;BME280;4040;42.848;23.034;2023-02-03T01:17:50;95224.59;;;1.35;100.00
7990;BME280;4040;42.848;23.034;2023-02-03T01:20:17;95232.78;;;1.42;100.00
7990;BME280;4040;42.848;23.034;2023-02-03T01:22:47;95233.41;;;1.39;100.00
7990;BME280;4040;42.848;23.034;2023-02-03T01:25:15;95229.00;;;1.43;100.00
7990;BME280;4040;42.848;23.034;2023-02-03T01:27:42;95222.34;;;1.49;100.00
7990;BME280;4040;42.848;23.034;2023-02-03T01:30:10;95206.44;;;1.49;100.00
7990;BME280;4040;42.848;23.034;2023-02-03T01:32:38;95205.66;;;1.49;100.00
7990;BME280;4040;42.848;23.034;2023-02-03T01:35:06;95215.94;;;1.62;100.00
7990;BME280;4040;42.848;23.034;2023-02-03T01:37:33;95215.72;;;1.55;100.00
7990;BME280;4040;42.848;23.034;2023-02-03T01:40:02;95223.25;;;1.53;100.00
7990;BME280;4040;42.848;23.034;2023-02-03T01:42:31;95215.94;;;1.50;100.00
7990;BME280;4040;42.848;23.034;2023-02-03T01:44:59;95220.59;;;1.53;100.00
7990;BME280;4040;42.848;23.034;2023-02-03T01:47:31;95231.84;;;1.50;100.00
7990;BME280;4040;42.848;23.034;2023-02-03T01:50:06;95225.66;;;1.58;100.00
7990;BME280;4040;42.848;23.034;2023-02-03T01:52:36;95238.06;;;1.54;100.00
7990;BME280;4040;42.848;23.034;2023-02-03T01:55:10;95227.22;;;1.59;100.00
7990;BME280;4040;42.848;23.034;2023-02-03T01:57:42;95222.47;;;1.53;100.00
7990;BME280;4040;42.848;23.034;2023-02-03T02:00:13;95231.09;;;1.50;100.00
7990;BME280;4040;42.848;23.034;2023-02-03T02:02:42;95239.19;;;1.53;100.00
7990;BME280;4040;42.848;23.034;2023-02-03T02:05:15;95255.97;;;1.57;100.00
7990;BME280;4040;42.848;23.034;2023-02-03T02:07:45;95247.13;;;1.65;100.00
7990;BME280;4040;42.848;23.034;2023-02-03T02:10:15;95252.44;;;1.65;100.00
7990;BME280;4040;42.848;23.034;2023-02-03T02:12:43;95250.63;;;1.69;100.00
7990;BME280;4040;42.848;23.034;2023-02-03T02:15:10;95222.34;;;1.49;100.00
7990;BME280;4040;42.848;23.034;2023-02-03T02:17:58;95260.81;;;1.67;100.00
7990;BME280;4040;42.848;23.034;2023-02-03T02:32:37;95261.91;;;1.78;100.00
7990;BME280;4040;42.848;23.034;2023-02-03T02:35:15;95261.06;;;1.74;100.00
7990;BME280;4040;42.848;23.034;2023-02-03T02:37:48;95235.63;;;1.49;100.00
7990;BME280;4040;42.848;23.034;2023-02-03T02:40:22;95261.72;;;1.59;100.00
7990;BME280;4040;42.848;23.034;2023-02-03T02:42:59;95275.34;;;1.58;100.00
7990;BME280;4040;42.848;23.034;2023-02-03T02:45:30;95269.00;;;1.50;100.00
7990;BME280;4040;42.848;23.034;2023-02-03T02:48:05;95281.84;;;1.36;100.00
7990;BME280;4040;42.848;23.034;2023-02-03T02:50:39;95284.81;;;1.23;100.00
7990;BME280;4040;42.848;23.034;2023-02-03T02:53:08;95281.63;;;1.17;100.00
7990;BME280;4040;42.848;23.034;2023-02-03T02:55:38;95280.94;;;1.08;100.00
7990;BME280;4040;42.848;23.034;2023-02-03T02:58:09;95277.28;;;1.01;100.00
7990;BME280;4040;42.848;23.034;2023-02-03T03:00:39;95268.44;;;0.97;100.00
7990;BME280;4040;42.848;23.034;2023-02-03T03:03:13;95287.78;;;1.09;100.00
7990;BME280;4040;42.848;23.034;2023-02-03T03:05:43;95303.38;;;1.11;100.00
7990;BME280;4040;42.848;23.034;2023-02-03T03:08:13;95304.28;;;1.15;100.00
7990;BME280;4040;42.848;23.034;2023-02-03T03:10:42;95312.13;;;1.23;100.00
7990;BME280;4040;42.848;23.034;2023-02-03T03:13:14;95309.69;;;1.18;100.00
7990;BME280;4040;42.848;23.034;2023-02-03T03:15:44;95311.56;;;1.18;100.00
7990;BME280;4040;42.848;23.034;2023-02-03T03:18:16;95297.94;;;1.07;100.00
7990;BME280;4040;42.848;23.034;2023-02-03T03:20:46;95309.47;;;1.23;100.00
7990;BME280;4040;42.848;23.034;2023-02-03T03:23:19;95310.38;;;1.27;100.00
7990;BME280;4040;42.848;23.034;2023-02-03T03:25:50;95313.44;;;1.29;100.00
7990;BME280;4040;42.848;23.034;2023-02-03T03:28:23;95305.97;;;1.31;100.00
7990;BME280;4040;42.848;23.034;2023-02-03T03:30:52;95308.16;;;1.29;100.00
7990;BME280;4040;42.848;23.034;2023-02-03T03:33:21;95245.56;;;0.92;100.00
7990;BME280;4040;42.848;23.034;2023-02-03T03:35:54;95299.31;;;1.37;100.00
7990;BME280;4040;42.848;23.034;2023-02-03T03:38:27;95316.78;;;1.38;100.00
7990;BME280;4040;42.848;23.034;2023-02-03T03:41:01;95306.16;;;1.38;100.00
7990;BME280;4040;42.848;23.034;2023-02-03T03:43:32;95308.16;;;1.29;100.00
7990;BME280;4040;42.848;23.034;2023-02-03T03:46:07;95307.94;;;1.22;100.00
7990;BME280;4040;42.848;23.034;2023-02-03T03:48:40;95298.63;;;1.16;100.00
7990;BME280;4040;42.848;23.034;2023-02-03T03:51:17;95290.00;;;1.07;100.00
7990;BME280;4040;42.848;23.034;2023-02-03T03:53:46;95292.63;;;0.95;100.00
7990;BME280;4040;42.848;23.034;2023-02-03T03:56:18;95289.53;;;0.93;100.00
7990;BME280;4040;42.848;23.034;2023-02-03T03:58:49;95282.44;;;0.85;100.00
7990;BME280;4040;42.848;23.034;2023-02-03T04:01:19;95289.97;;;0.83;100.00
7990;BME280;4040;42.848;23.034;2023-02-03T04:03:53;95284.91;;;0.90;100.00
7990;BME280;4040;42.848;23.034;2023-02-03T04:06:21;95294.84;;;0.93;100.00
7990;BME280;4040;42.848;23.034;2023-02-03T04:08:49;95302.34;;;0.91;100.00
7990;BME280;4040;42.848;23.034;2023-02-03T04:11:16;95312.16;;;0.91;100.00
7990;BME280;4040;42.848;23.034;2023-02-03T04:13:57;95315.81;;;0.86;100.00
7990;BME280;4040;42.848;23.034;2023-02-03T04:16:25;95327.41;;;0.94;100.00
7990;BME280;4040;42.848;23.034;2023-02-03T04:18:54;95319.59;;;0.97;100.00
7990;BME280;4040;42.848;23.034;2023-02-03T04:21:21;95320.28;;;1.06;100.00
7990;BME280;4040;42.848;23.034;2023-02-03T04:23:48;95325.16;;;1.16;100.00
7990;BME280;4040;42.848;23.034;2023-02-03T04:26:16;95325.41;;;1.23;100.00
7990;BME280;4040;42.848;23.034;2023-02-03T04:28:44;95319.44;;;1.26;100.00
7990;BME280;4040;42.848;23.034;2023-02-03T04:31:11;95332.50;;;1.31;100.00
7990;BME280;4040;42.848;23.034;2023-02-03T04:33:38;95333.13;;;1.28;100.00
7990;BME280;4040;42.848;23.034;2023-02-03T04:36:08;95337.13;;;1.34;100.00
7990;BME280;4040;42.848;23.034;2023-02-03T04:38:35;95339.91;;;1.38;100.00
7990;BME280;4040;42.848;23.034;2023-02-03T04:41:03;95344.44;;;1.37;100.00
7990;BME280;4040;42.848;23.034;2023-02-03T04:43:30;95357.50;;;1.42;100.00
7990;BME280;4040;42.848;23.034;2023-02-03T04:45:58;95348.63;;;1.38;100.00
7990;BME280;4040;42.848;23.034;2023-02-03T04:48:26;95352.16;;;1.30;100.00
7990;BME280;4040;42.848;23.034;2023-02-03T04:50:53;95353.47;;;1.24;100.00
7990;BME280;4040;42.848;23.034;2023-02-03T04:53:22;95351.69;;;1.16;100.00
7990;BME280;4040;42.848;23.034;2023-02-03T04:55:49;95356.31;;;1.07;100.00
7990;BME280;4040;42.848;23.034;2023-02-03T04:58:17;95358.31;;;1.10;100.00
7990;BME280;4040;42.848;23.034;2023-02-03T05:00:44;95353.31;;;0.97;100.00
7990;BME280;4040;42.848;23.034;2023-02-03T05:03:11;95355.59;;;0.98;100.00
7990;BME280;4040;42.848;23.034;2023-02-03T05:05:39;95357.41;;;1.06;100.00
7990;BME280;4040;42.848;23.034;2023-02-03T05:08:06;95359.19;;;1.14;100.00
7990;BME280;4040;42.848;23.034;2023-02-03T05:10:35;95360.88;;;1.19;100.00
7990;BME280;4040;42.848;23.034;2023-02-03T05:13:02;95363.66;;;1.22;100.00
7990;BME280;4040;42.848;23.034;2023-02-03T05:15:29;95369.16;;;1.29;100.00
7990;BME280;4040;42.848;23.034;2023-02-03T05:17:57;95374.97;;;1.43;100.00
7990;BME280;4040;42.848;23.034;2023-02-03T05:20:24;95379.38;;;1.51;100.00
7990;BME280;4040;42.848;23.034;2023-02-03T05:22:52;95373.44;;;1.54;100.00
7990;BME280;4040;42.848;23.034;2023-02-03T05:25:20;95366.09;;;1.51;100.00
7990;BME280;4040;42.848;23.034;2023-02-03T05:27:48;95383.50;;;1.61;100.00
7990;BME280;4040;42.848;23.034;2023-02-03T05:30:16;95374.31;;;1.58;100.00
7990;BME280;4040;42.848;23.034;2023-02-03T05:32:43;95389.13;;;1.59;100.00
7990;BME280;4040;42.848;23.034;2023-02-03T05:35:11;95388.81;;;1.61;100.00
7990;BME280;4040;42.848;23.034;2023-02-03T05:37:38;95385.34;;;1.48;100.00
7990;BME280;4040;42.848;23.034;2023-02-03T05:40:06;95385.34;;;1.48;100.00
7990;BME280;4040;42.848;23.034;2023-02-03T05:42:52;95396.19;;;1.43;100.00
7990;BME280;4040;42.848;23.034;2023-02-03T05:45:19;95394.59;;;1.30;100.00
7990;BME280;4040;42.848;23.034;2023-02-03T05:47:47;95402.00;;;1.25;100.00
7990;BME280;4040;42.848;23.034;2023-02-03T05:50:14;95405.97;;;1.19;100.00
7990;BME280;4040;42.848;23.034;2023-02-03T05:52:42;95403.41;;;1.10;100.00
7990;BME280;4040;42.848;23.034;2023-02-03T05:55:09;95397.84;;;1.03;100.00
7990;BME280;4040;42.848;23.034;2023-02-03T05:57:36;95402.19;;;1.08;100.00
7990;BME280;4040;42.848;23.034;2023-02-03T06:00:07;95405.84;;;1.15;100.00
7990;BME280;4040;42.848;23.034;2023-02-03T06:02:34;95408.63;;;1.19;100.00
7990;BME280;4040;42.848;23.034;2023-02-03T06:05:01;95407.88;;;1.30;100.00
7990;BME280;4040;42.848;23.034;2023-02-03T06:07:29;95407.91;;;1.42;100.00
7990;BME280;4040;42.848;23.034;2023-02-03T06:09:56;95424.97;;;1.53;100.00
7990;BME280;4040;42.848;23.034;2023-02-03T06:12:23;95420.41;;;1.54;100.00
7990;BME280;4040;42.848;23.034;2023-02-03T06:14:50;95430.72;;;1.67;100.00
7990;BME280;4040;42.848;23.034;2023-02-03T06:17:19;95432.66;;;1.79;100.00
7990;BME280;4040;42.848;23.034;2023-02-03T06:19:46;95437.19;;;2.02;100.00
7990;BME280;4040;42.848;23.034;2023-02-03T06:22:14;95440.94;;;2.01;100.00
7990;BME280;4040;42.848;23.034;2023-02-03T06:24:41;95345.78;;;1.55;100.00
7990;BME280;4040;42.848;23.034;2023-02-03T06:27:09;95450.25;;;2.31;100.00
7990;BME280;4040;42.848;23.034;2023-02-03T06:29:36;95453.25;;;2.42;100.00
7990;BME280;4040;42.848;23.034;2023-02-03T06:32:04;95454.81;;;2.82;100.00
7990;BME280;4040;42.848;23.034;2023-02-03T06:34:33;95447.88;;;3.91;100.00
7990;BME280;4040;42.848;23.034;2023-02-03T06:37:00;95426.00;;;4.82;100.00
7990;BME280;4040;42.848;23.034;2023-02-03T06:39:27;95428.28;;;5.36;100.00
7990;BME280;4040;42.848;23.034;2023-02-03T06:41:54;95431.22;;;5.69;100.00
7990;BME280;4040;42.848;23.034;2023-02-03T06:44:22;95429.38;;;5.54;100.00
7990;BME280;4040;42.848;23.034;2023-02-03T06:46:49;95431.59;;;5.90;100.00
7990;BME280;4040;42.848;23.034;2023-02-03T06:49:17;95433.78;;;6.07;100.00
7990;BME280;4040;42.848;23.034;2023-02-03T06:51:45;95437.56;;;5.84;100.00
7990;BME280;4040;42.848;23.034;2023-02-03T06:54:13;95435.13;;;6.20;100.00
7990;BME280;4040;42.848;23.034;2023-02-03T06:56:40;95425.53;;;6.64;96.88
7990;BME280;4040;42.848;23.034;2023-02-03T06:59:07;95431.03;;;7.04;86.52
7990;BME280;4040;42.848;23.034;2023-02-03T07:01:35;95438.31;;;6.26;87.96
7990;BME280;4040;42.848;23.034;2023-02-03T07:04:02;95439.59;;;6.61;89.01
7990;BME280;4040;42.848;23.034;2023-02-03T07:06:30;95435.97;;;6.47;88.70
7990;BME280;4040;42.848;23.034;2023-02-03T07:09:01;95443.09;;;6.91;83.84
7990;BME280;4040;42.848;23.034;2023-02-03T07:11:29;95432.03;;;7.55;77.53
7990;BME280;4040;42.848;23.034;2023-02-03T07:13:56;95420.31;;;7.70;75.48
7990;BME280;4040;42.848;23.034;2023-02-03T07:16:23;95424.78;;;8.39;69.86
7990;BME280;4040;42.848;23.034;2023-02-03T07:18:52;95389.88;;;7.92;69.38
7990;BME280;4040;42.848;23.034;2023-02-03T07:21:19;95427.94;;;8.48;67.10
7990;BME280;4040;42.848;23.034;2023-02-03T07:23:47;95447.34;;;8.78;65.07
7990;BME280;4040;42.848;23.034;2023-02-03T07:26:16;95437.25;;;8.61;64.36
7990;BME280;4040;42.848;23.034;2023-02-03T07:28:44;95445.09;;;8.33;65.39
7990;BME280;4040;42.848;23.034;2023-02-03T07:31:11;95440.56;;;8.04;66.33
7990;BME280;4040;42.848;23.034;2023-02-03T07:33:39;95441.50;;;8.69;65.10
7990;BME280;4040;42.848;23.034;2023-02-03T07:36:07;95448.34;;;9.17;61.77
7990;BME280;4040;42.848;23.034;2023-02-03T07:38:34;95444.66;;;8.78;62.66
7990;BME280;4040;42.848;23.034;2023-02-03T07:41:02;95448.50;;;9.55;60.32
7990;BME280;4040;42.848;23.034;2023-02-03T07:43:31;95445.41;;;9.46;60.14
7990;BME280;4040;42.848;23.034;2023-02-03T07:45:59;95452.56;;;10.20;57.07
7990;BME280;4040;42.848;23.034;2023-02-03T07:48:26;95447.56;;;10.50;56.13
7990;BME280;4040;42.848;23.034;2023-02-03T07:50:54;95452.84;;;9.88;57.61
7990;BME280;4040;42.848;23.034;2023-02-03T07:53:21;95454.09;;;10.28;57.01
7990;BME280;4040;42.848;23.034;2023-02-03T07:55:49;95443.28;;;10.98;54.01
7990;BME280;4040;42.848;23.034;2023-02-03T07:58:16;95457.03;;;11.49;51.96
7990;BME280;4040;42.848;23.034;2023-02-03T08:00:45;95450.09;;;11.48;50.90
7990;BME280;4040;42.848;23.034;2023-02-03T08:03:12;95457.19;;;10.72;52.30
7990;BME280;4040;42.848;23.034;2023-02-03T08:05:39;95461.78;;;10.68;51.80
7990;BME280;4040;42.848;23.034;2023-02-03T08:08:06;95455.66;;;11.99;50.16
7990;BME280;4040;42.848;23.034;2023-02-03T08:10:34;95467.78;;;11.56;49.59
7990;BME280;4040;42.848;23.034;2023-02-03T08:13:01;95468.28;;;11.09;50.46
7990;BME280;4040;42.848;23.034;2023-02-03T08:15:28;95455.50;;;9.81;54.03
7990;BME280;4040;42.848;23.034;2023-02-03T08:17:57;95463.63;;;9.98;54.08
7990;BME280;4040;42.848;23.034;2023-02-03T08:20:25;95481.25;;;9.78;54.46
7990;BME280;4040;42.848;23.034;2023-02-03T08:22:52;95481.53;;;9.52;57.21
7990;BME280;4040;42.848;23.034;2023-02-03T08:25:19;95477.09;;;10.01;55.97
7990;BME280;4040;42.848;23.034;2023-02-03T08:27:47;95489.34;;;9.85;55.27
7990;BME280;4040;42.848;23.034;2023-02-03T08:30:14;95500.66;;;10.39;55.77
7990;BME280;4040;42.848;23.034;2023-02-03T08:32:41;95505.63;;;11.39;54.13
7990;BME280;4040;42.848;23.034;2023-02-03T08:35:10;95497.84;;;11.65;52.34
7990;BME280;4040;42.848;23.034;2023-02-03T08:37:37;95507.97;;;10.46;54.29
7990;BME280;4040;42.848;23.034;2023-02-03T08:40:06;95507.22;;;10.52;55.42
7990;BME280;4040;42.848;23.034;2023-02-03T08:42:33;95487.97;;;10.92;54.81
7990;BME280;4040;42.848;23.034;2023-02-03T08:45:01;95508.78;;;12.81;50.48
7990;BME280;4040;42.848;23.034;2023-02-03T08:47:28;95522.13;;;11.51;50.55
7990;BME280;4040;42.848;23.034;2023-02-03T08:49:55;95520.22;;;11.52;51.63
7990;BME280;4040;42.848;23.034;2023-02-03T08:52:24;95527.16;;;11.46;52.23
7990;BME280;4040;42.848;23.034;2023-02-03T08:54:51;95522.59;;;12.32;51.23
7990;BME280;4040;42.848;23.034;2023-02-03T08:57:19;95523.00;;;10.85;51.50
7990;BME280;4040;42.848;23.034;2023-02-03T08:59:46;95512.19;;;10.43;53.42
7990;BME280;4040;42.848;23.034;2023-02-03T09:02:15;95533.91;;;9.83;55.37
7990;BME280;4040;42.848;23.034;2023-02-03T09:04:44;95527.22;;;10.48;54.86
7990;BME280;4040;42.848;23.034;2023-02-03T09:07:13;95525.31;;;9.53;56.62
7990;BME280;4040;42.848;23.034;2023-02-03T09:09:42;95539.09;;;10.29;57.11
7990;BME280;4040;42.848;23.034;2023-02-03T09:12:10;95538.78;;;10.97;54.12
7990;BME280;4040;42.848;23.034;2023-02-03T09:14:37;95528.78;;;12.36;50.91
7990;BME280;4040;42.848;23.034;2023-02-03T09:17:05;95535.25;;;11.56;50.85
7990;BME280;4040;42.848;23.034;2023-02-03T09:19:34;95525.47;;;13.20;48.15
7990;BME280;4040;42.848;23.034;2023-02-03T09:22:01;95525.38;;;14.01;46.56
7990;BME280;4040;42.848;23.034;2023-02-03T09:24:28;95536.13;;;12.32;46.73
7990;BME280;4040;42.848;23.034;2023-02-03T09:26:57;95531.72;;;11.80;49.29
7990;BME280;4040;42.848;23.034;2023-02-03T09:29:25;95530.13;;;11.93;47.93
7990;BME280;4040;42.848;23.034;2023-02-03T09:31:53;95535.31;;;12.35;48.24
7990;BME280;4040;42.848;23.034;2023-02-03T09:34:20;95522.91;;;12.52;47.73
7990;BME280;4040;42.848;23.034;2023-02-03T09:36:48;95534.47;;;11.63;47.66
7990;BME280;4040;42.848;23.034;2023-02-03T09:39:16;95535.59;;;11.72;47.90
7990;BME280;4040;42.848;23.034;2023-02-03T09:41:58;95515.28;;;11.22;48.46
7990;BME280;4040;42.848;23.034;2023-02-03T09:44:32;95529.16;;;12.35;46.46
7990;BME280;4040;42.848;23.034;2023-02-03T09:47:09;95531.16;;;12.20;47.03
7990;BME280;4040;42.848;23.034;2023-02-03T09:49:40;95500.97;;;11.46;46.71
7990;BME280;4040;42.848;23.034;2023-02-03T09:52:12;95523.41;;;10.77;49.51
7990;BME280;4040;42.848;23.034;2023-02-03T09:54:43;95520.69;;;9.50;52.58
7990;BME280;4040;42.848;23.034;2023-02-03T09:57:18;95517.13;;;8.74;52.30
7990;BME280;4040;42.848;23.034;2023-02-03T09:59:47;95512.88;;;9.24;52.06
7990;BME280;4040;42.848;23.034;2023-02-03T10:02:25;95514.78;;;8.26;55.69
7990;BME280;4040;42.848;23.034;2023-02-03T10:04:59;95512.94;;;7.35;56.71
7990;BME280;4040;42.848;23.034;2023-02-03T10:07:35;95510.03;;;6.20;61.74
7990;BME280;4040;42.848;23.034;2023-02-03T10:10:14;95534.72;;;5.91;64.73
7990;BME280;4040;42.848;23.034;2023-02-03T10:12:57;95527.28;;;8.15;61.32
7990;BME280;4040;42.848;23.034;2023-02-03T10:15:40;95498.75;;;10.85;53.24
7990;BME280;4040;42.848;23.034;2023-02-03T10:18:13;95496.19;;;11.96;48.77
7990;BME280;4040;42.848;23.034;2023-02-03T10:20:45;95496.25;;;11.82;46.61
7990;BME280;4040;42.848;23.034;2023-02-03T10:23:16;95507.47;;;11.52;45.27
7990;BME280;4040;42.848;23.034;2023-02-03T10:25:47;95489.69;;;12.51;45.02
7990;BME280;4040;42.848;23.034;2023-02-03T10:28:23;95474.34;;;12.34;43.05
7990;BME280;4040;42.848;23.034;2023-02-03T10:30:54;95496.63;;;12.52;42.92
7990;BME280;4040;42.848;23.034;2023-02-03T10:33:25;95486.34;;;13.65;40.49
7990;BME280;4040;42.848;23.034;2023-02-03T10:35:54;95497.44;;;12.49;42.17
7990;BME280;4040;42.848;23.034;2023-02-03T10:38:42;95503.94;;;9.81;48.42
7990;BME280;4040;42.848;23.034;2023-02-03T10:41:10;95496.19;;;9.65;49.21
7990;BME280;4040;42.848;23.034;2023-02-03T10:43:39;95483.69;;;11.19;46.60
7990;BME280;4040;42.848;23.034;2023-02-03T10:46:20;95497.81;;;11.72;44.01
7990;BME280;4040;42.848;23.034;2023-02-03T10:48:52;95492.47;;;11.51;43.87
7990;BME280;4040;42.848;23.034;2023-02-03T10:51:21;95476.19;;;11.86;44.06
7990;BME280;4040;42.848;23.034;2023-02-03T10:53:49;95443.13;;;12.80;42.30
7990;BME280;4040;42.848;23.034;2023-02-03T10:56:20;95460.63;;;13.13;41.57
7990;BME280;4040;42.848;23.034;2023-02-03T10:58:52;95476.75;;;10.07;46.14
7990;BME280;4040;42.848;23.034;2023-02-03T11:01:22;95467.97;;;10.72;46.43
7990;BME280;4040;42.848;23.034;2023-02-03T11:03:57;95459.38;;;12.26;43.91
7990;BME280;4040;42.848;23.034;2023-02-03T11:06:25;95451.03;;;12.57;40.97
7990;BME280;4040;42.848;23.034;2023-02-03T11:08:53;95443.72;;;12.00;41.25
7990;BME280;4040;42.848;23.034;2023-02-03T11:11:22;95454.84;;;11.02;42.39
7990;BME280;4040;42.848;23.034;2023-02-03T11:14:10;95447.81;;;11.36;41.59
7990;BME280;4040;42.848;23.034;2023-02-03T11:16:38;95455.66;;;10.75;42.12
7990;BME280;4040;42.848;23.034;2023-02-03T11:19:10;95447.09;;;9.99;43.87
7990;BME280;4040;42.848;23.034;2023-02-03T11:21:43;95440.50;;;9.76;42.38
7990;BME280;4040;42.848;23.034;2023-02-03T11:24:17;95440.13;;;9.78;43.88
7990;BME280;4040;42.848;23.034;2023-02-03T11:26:48;95448.38;;;9.24;44.54
7990;BME280;4040;42.848;23.034;2023-02-03T11:29:23;95435.19;;;9.97;42.64
7990;BME280;4040;42.848;23.034;2023-02-03T11:31:54;95436.41;;;10.20;41.87
7990;BME280;4040;42.848;23.034;2023-02-03T11:34:24;95429.25;;;9.46;42.21
7990;BME280;4040;42.848;23.034;2023-02-03T11:36:53;95435.88;;;8.84;43.66
7990;BME280;4040;42.848;23.034;2023-02-03T11:39:25;95439.81;;;9.04;42.87
7990;BME280;4040;42.848;23.034;2023-02-03T11:41:53;95447.34;;;9.46;42.48
7990;BME280;4040;42.848;23.034;2023-02-03T11:44:24;95441.56;;;9.47;42.03
7990;BME280;4040;42.848;23.034;2023-02-03T11:46:56;95442.91;;;10.02;40.30
7990;BME280;4040;42.848;23.034;2023-02-03T11:49:50;95433.34;;;10.50;40.76
7990;BME280;4040;42.848;23.034;2023-02-03T11:52:49;95436.41;;;10.24;41.24
7990;BME280;4040;42.848;23.034;2023-02-03T11:55:49;95438.13;;;11.63;40.64
7990;BME280;4040;42.848;23.034;2023-02-03T11:58:37;95442.78;;;11.45;38.42
7990;BME280;4040;42.848;23.034;2023-02-03T12:01:14;95452.81;;;11.41;40.38
7990;BME280;4040;42.848;23.034;2023-02-03T12:04:16;95448.72;;;10.91;40.13
7990;BME280;4040;42.848;23.034;2023-02-03T12:07:10;95445.50;;;11.31;40.00
7990;BME280;4040;42.848;23.034;2023-02-03T12:09:49;95442.19;;;10.64;40.26
7990;BME280;4040;42.848;23.034;2023-02-03T12:12:40;95425.63;;;10.17;41.84
7990;BME280;4040;42.848;23.034;2023-02-03T12:15:22;95432.56;;;10.39;42.38
7990;BME280;4040;42.848;23.034;2023-02-03T12:18:07;95426.00;;;10.36;42.27
7990;BME280;4040;42.848;23.034;2023-02-03T12:20:46;95427.16;;;10.07;41.55
7990;BME280;4040;42.848;23.034;2023-02-03T12:23:29;95435.13;;;7.97;45.28
7990;BME280;4040;42.848;23.034;2023-02-03T12:26:09;95453.78;;;7.17;48.80
7990;BME280;4040;42.848;23.034;2023-02-03T12:28:47;95443.09;;;6.39;50.63
7990;BME280;4040;42.848;23.034;2023-02-03T12:31:23;95448.00;;;6.11;50.58
7990;BME280;4040;42.848;23.034;2023-02-03T12:34:01;95433.97;;;5.76;50.09
7990;BME280;4040;42.848;23.034;2023-02-03T12:36:35;95443.47;;;5.32;50.72
7990;BME280;4040;42.848;23.034;2023-02-03T12:39:06;95435.38;;;5.10;51.08
7990;BME280;4040;42.848;23.034;2023-02-03T12:41:42;95445.38;;;5.13;50.74
7990;BME280;4040;42.848;23.034;2023-02-03T12:44:18;95442.06;;;5.19;51.20
7990;BME280;4040;42.848;23.034;2023-02-03T12:46:49;95448.53;;;5.18;51.37
7990;BME280;4040;42.848;23.034;2023-02-03T12:49:27;95434.19;;;5.07;52.36
7990;BME280;4040;42.848;23.034;2023-02-03T12:52:02;95390.84;;;4.95;51.98
7990;BME280;4040;42.848;23.034;2023-02-03T12:54:41;95410.44;;;5.02;53.09
7990;BME280;4040;42.848;23.034;2023-02-03T12:57:19;95422.50;;;5.15;53.85
7990;BME280;4040;42.848;23.034;2023-02-03T12:59:57;95430.81;;;5.10;54.44
7990;BME280;4040;42.848;23.034;2023-02-03T13:02:28;95430.81;;;5.10;57.03
7990;BME280;4040;42.848;23.034;2023-02-03T13:05:04;95433.22;;;4.96;57.58
7990;BME280;4040;42.848;23.034;2023-02-03T13:07:39;95418.88;;;5.04;58.07
7990;BME280;4040;42.848;23.034;2023-02-03T13:10:17;95416.63;;;4.88;57.85
7990;BME280;4040;42.848;23.034;2023-02-03T13:12:49;95424.56;;;4.84;59.58
7990;BME280;4040;42.848;23.034;2023-02-03T13:15:23;95418.94;;;4.89;60.34
7990;BME280;4040;42.848;23.034;2023-02-03T13:17:56;95417.31;;;4.84;60.85
7990;BME280;4040;42.848;23.034;2023-02-03T13:20:27;95413.09;;;4.65;61.39
7990;BME280;4040;42.848;23.034;2023-02-03T13:22:56;95413.47;;;4.48;60.56
7990;BME280;4040;42.848;23.034;2023-02-03T13:25:26;95414.97;;;4.64;59.89
7990;BME280;4040;42.848;23.034;2023-02-03T13:28:05;95410.13;;;4.70;59.38
7990;BME280;4040;42.848;23.034;2023-02-03T13:30:50;95408.03;;;4.79;60.05
7990;BME280;4040;42.848;23.034;2023-02-03T13:37:03;95406.78;;;5.10;61.00
7990;BME280;4040;42.848;23.034;2023-02-03T13:40:02;95401.31;;;5.22;60.07
7990;BME280;4040;42.848;23.034;2023-02-03T13:42:37;95400.25;;;5.08;59.34
7990;BME280;4040;42.848;23.034;2023-02-03T13:45:12;95409.72;;;5.05;59.88
7990;BME280;4040;42.848;23.034;2023-02-03T13:47:45;95410.28;;;4.77;60.88